Time;durP1;ratioP1;P1;durP2;ratioP2;P2;SDS_P1;SDS_P2;PMS_P1;PMS_P2;Temp;Humidity;BMP_temperature;BMP_pressure;BME280_temperature;BME280_humidity;BME280_pressure;Samples;Min_cycle;Max_cycle;Signal;HPM_P1;HPM_P2
2023/03/26 00:02:38;;;;;;;;;;;12.40;53.30;;;11.06;54.12;99844.22;12252206;19;20266;-87
2023/03/26 00:06:40;;;;;;;;;;;12.40;53.70;;;11.06;54.31;99857.28;12247632;19;19923;-87
2023/03/26 00:10:43;;;;;;;;;;;12.30;53.40;;;10.81;54.42;99819.84;12251956;19;19923;-87
2023/03/26 00:14:45;;;;;;;;;;;12.30;53.50;;;11.00;54.39;99852.50;12251335;19;19926;-87
2023/03/26 00:18:47;;;;;;;;;;;12.40;53.70;;;11.09;54.62;99883.19;12247834;19;19941;-87
2023/03/26 00:22:50;;;;;;;;;;;12.30;53.20;;;10.84;54.29;99837.91;12251197;19;19923;-87
2023/03/26 00:26:52;;;;;;;;;;;12.40;53.40;;;11.06;54.52;99879.00;12251417;19;20324;-87
2023/03/26 00:30:59;;;;;;;;;;;12.30;53.20;;;11.07;54.33;99883.31;12251018;19;20241;-87
2023/03/26 00:35:05;;;;;;;;;;;12.40;53.10;;;11.07;54.35;99880.69;12244923;19;21386;-87
2023/03/26 00:39:06;;;;;;;;;;;12.30;53.20;;;10.97;54.44;99860.56;12245848;19;19911;-87
2023/03/26 00:43:17;;;;;;;;;;;12.40;53.20;;;11.03;54.32;99867.94;12248875;19;19926;-87
2023/03/26 00:47:20;;;;;;;;;;;12.30;53.10;;;11.05;54.51;99876.50;12248066;19;19919;-87
2023/03/26 00:51:22;;;;;;;;;;;12.30;53.30;;;10.79;54.27;99833.94;12249794;19;19933;-87
2023/03/26 00:55:24;;;;;;;;;;;12.30;53.20;;;10.80;54.57;99833.00;12249470;19;19915;-87
2023/03/26 00:59:29;;;;;;;;;;;12.40;53.10;;;11.07;54.36;99879.84;12244830;19;19926;-87
2023/03/26 01:03:33;;;;;;;;;;;12.30;53.00;;;11.02;54.52;99872.34;12246656;19;19929;-87
2023/03/26 01:07:35;;;;;;;;;;;12.30;52.90;;;10.86;54.35;99850.84;12242086;19;20336;-87
2023/03/26 01:11:37;;;;;;;;;;;12.30;53.00;;;11.05;54.36;99893.03;12247006;19;19926;-87
2023/03/26 01:15:40;;;;;;;;;;;12.50;53.10;;;10.97;54.55;99892.72;12249261;19;20308;-87
2023/03/26 01:20:25;;;;;;;;;;;12.30;53.00;;;10.96;54.40;99893.66;12240743;19;19939;-87
2023/03/26 01:24:27;;;;;;;;;;;12.30;53.10;;;10.90;54.62;99886.25;12247844;19;20392;-87
2023/03/26 01:28:29;;;;;;;;;;;12.20;53.10;;;10.83;54.59;99883.25;12242984;19;20419;-87
2023/03/26 01:32:42;;;;;;;;;;;12.30;53.40;;;10.89;54.59;99891.59;12247187;19;19903;-87
2023/03/26 01:37:02;;;;;;;;;;;12.20;53.20;;;10.85;54.55;99886.59;12244891;19;19911;-87
2023/03/26 01:41:19;;;;;;;;;;;12.40;53.40;;;10.88;54.60;99893.34;12245383;19;19943;-87
2023/03/26 01:45:25;;;;;;;;;;;12.20;53.20;;;10.78;54.49;99876.69;12246730;19;19942;-87
2023/03/26 01:49:28;;;;;;;;;;;12.20;53.30;;;10.85;54.55;99896.19;12243648;19;20019;-87
2023/03/26 01:53:31;;;;;;;;;;;12.20;53.40;;;10.85;54.77;99890.97;12245542;19;19918;-87
2023/03/26 01:57:43;;;;;;;;;;;12.20;53.50;;;10.91;54.64;99894.91;12244648;19;19922;-87
2023/03/26 02:01:58;;;;;;;;;;;12.20;53.50;;;10.83;54.66;99905.94;12244727;19;19911;-87
2023/03/26 02:06:20;;;;;;;;;;;12.20;53.50;;;10.81;54.61;99911.25;12245229;19;19911;-88
2023/03/26 02:10:26;;;;;;;;;;;12.20;53.30;;;10.85;54.75;99907.50;12244705;19;20545;-87
2023/03/26 02:14:30;;;;;;;;;;;12.10;53.10;;;10.67;54.65;99880.03;12244916;19;19919;-87
2023/03/26 02:18:35;;;;;;;;;;;12.10;54.00;;;10.61;54.62;99896.97;12242235;19;19948;-87
2023/03/26 02:22:44;;;;;;;;;;;12.00;53.50;;;10.61;54.65;99899.56;12244885;19;19915;-87
2023/03/26 02:26:48;;;;;;;;;;;12.00;53.40;;;10.59;54.66;99900.63;12244774;19;19930;-87
2023/03/26 02:30:49;;;;;;;;;;;11.90;53.40;;;10.46;54.76;99886.72;12245868;19;19922;-88
2023/03/26 02:34:51;;;;;;;;;;;11.90;53.40;;;10.31;54.82;99878.16;12259243;19;20370;-88
2023/03/26 02:38:56;;;;;;;;;;;11.90;53.50;;;10.43;54.68;99892.16;12252931;19;20237;-88
2023/03/26 02:42:57;;;;;;;;;;;11.80;53.70;;;10.50;54.85;99915.09;12253206;19;19964;-87
2023/03/26 02:46:59;;;;;;;;;;;11.80;53.60;;;10.48;54.71;99911.78;12253740;19;19915;-87
2023/03/26 02:51:21;;;;;;;;;;;11.80;53.50;;;10.44;54.93;99897.25;12250694;19;19915;-87
2023/03/26 02:55:31;;;;;;;;;;;11.80;53.50;;;10.41;54.71;99907.91;12256116;19;19907;-87
2023/03/26 02:59:37;;;;;;;;;;;11.80;53.70;;;10.39;54.85;99908.00;12250387;19;19919;-87
2023/03/26 03:04:14;;;;;;;;;;;11.70;53.50;;;10.30;54.94;99903.41;12253354;19;19944;-87
2023/03/26 03:08:21;;;;;;;;;;;11.70;53.40;;;10.31;54.82;99901.63;12250433;19;19936;-87
2023/03/26 03:12:48;;;;;;;;;;;11.70;53.50;;;10.39;54.77;99926.28;12253665;19;19938;-88
2023/03/26 03:16:49;;;;;;;;;;;11.70;53.40;;;10.32;54.83;99908.53;12253405;19;19922;-87
2023/03/26 03:20:52;;;;;;;;;;;11.70;53.60;;;10.25;54.94;99899.41;12251788;19;19926;-87
2023/03/26 03:24:56;;;;;;;;;;;11.70;53.50;;;10.34;54.80;99922.31;12255548;19;19910;-88
2023/03/26 03:28:58;;;;;;;;;;;11.60;53.50;;;10.24;54.96;99910.81;12250978;19;19914;-87
2023/03/26 03:33:01;;;;;;;;;;;11.60;54.10;;;10.18;54.86;99912.88;12255269;19;19918;-88
2023/03/26 03:37:08;;;;;;;;;;;11.70;53.60;;;10.18;54.80;99907.66;12251774;19;19940;-87
2023/03/26 03:41:18;;;;;;;;;;;11.60;53.70;;;9.97;55.04;99872.56;12249137;19;19943;-87
2023/03/26 03:45:20;;;;;;;;;;;11.60;53.60;;;10.24;54.88;99918.63;12246091;19;20272;-87
2023/03/26 03:49:30;;;;;;;;;;;11.60;53.60;;;10.32;54.85;99939.88;12249484;19;19922;-88
2023/03/26 03:53:35;;;;;;;;;;;11.60;53.80;;;10.34;55.05;99937.97;12251913;19;19929;-87
2023/03/26 03:57:39;;;;;;;;;;;11.60;53.70;;;10.33;55.06;99931.09;12250359;19;20256;-87
2023/03/26 04:01:47;;;;;;;;;;;11.70;53.70;;;10.39;54.97;99938.50;12248911;19;19943;-87
2023/03/26 04:05:59;;;;;;;;;;;11.70;53.60;;;10.40;55.07;99948.00;12251399;19;20299;-87
2023/03/26 04:10:04;;;;;;;;;;;11.60;53.60;;;10.35;55.03;99947.47;12250459;19;19923;-87
2023/03/26 04:14:25;;;;;;;;;;;11.70;53.70;;;10.03;54.93;99889.59;12249134;19;19927;-87
2023/03/26 04:18:53;;;;;;;;;;;11.70;53.90;;;10.27;55.03;99936.69;12247577;19;19918;-87
2023/03/26 04:22:55;;;;;;;;;;;11.70;53.80;;;10.32;54.98;99942.47;12252554;19;19938;-87
2023/03/26 04:27:00;;;;;;;;;;;11.70;54.20;;;10.30;55.01;99939.13;12248170;19;19918;-87
2023/03/26 04:31:12;;;;;;;;;;;11.70;54.10;;;10.31;55.21;99938.16;12251389;19;19995;-87
2023/03/26 04:35:16;;;;;;;;;;;11.70;53.90;;;10.32;55.09;99940.69;12249232;19;19982;-87
2023/03/26 04:39:27;;;;;;;;;;;11.70;53.90;;;10.39;55.17;99952.38;12246594;19;19938;-87
2023/03/26 04:44:00;;;;;;;;;;;11.70;53.80;;;10.39;55.08;99941.94;12249015;19;19925;-87
2023/03/26 04:48:13;;;;;;;;;;;11.80;53.90;;;10.48;55.08;99953.56;12247404;19;20304;-87
2023/03/26 04:52:15;;;;;;;;;;;11.70;53.70;;;10.48;54.98;99961.38;12250415;19;19919;-87
2023/03/26 04:56:49;;;;;;;;;;;11.80;53.80;;;10.51;55.04;99955.13;12241752;19;19926;-87
2023/03/26 05:01:02;;;;;;;;;;;11.80;53.80;;;10.48;55.10;99958.78;12245967;19;19919;-87
2023/03/26 05:05:04;;;;;;;;;;;11.80;53.70;;;10.47;55.04;99954.47;12248728;19;19915;-87
2023/03/26 05:09:09;;;;;;;;;;;11.80;53.60;;;10.27;55.15;99921.91;12245255;19;19919;-87
2023/03/26 05:13:31;;;;;;;;;;;11.80;53.60;;;10.39;55.19;99954.16;12246897;19;20317;-87
2023/03/26 05:17:40;;;;;;;;;;;11.70;53.70;;;10.12;55.21;99910.66;12244700;19;19915;-87
2023/03/26 05:21:46;;;;;;;;;;;11.70;53.70;;;10.34;55.37;99945.78;12245505;19;19922;-87
2023/03/26 05:25:48;;;;;;;;;;;11.70;53.60;;;10.33;55.34;99951.97;12245379;19;19918;-87
2023/03/26 05:30:00;;;;;;;;;;;11.70;53.70;;;10.32;55.42;99958.13;12243748;19;19921;-87
2023/03/26 05:34:02;;;;;;;;;;;11.60;53.60;;;10.37;55.31;99963.88;12246381;19;19919;-87
2023/03/26 05:38:03;;;;;;;;;;;11.70;53.80;;;10.38;55.32;99968.97;12246877;19;19915;-88
2023/03/26 05:42:06;;;;;;;;;;;11.70;53.80;;;10.35;55.32;99955.31;12243976;19;19922;-88
2023/03/26 05:46:24;;;;;;;;;;;11.70;53.70;;;10.30;55.20;99957.38;12237206;19;19922;-87
2023/03/26 05:50:25;;;;;;;;;;;11.70;53.70;;;10.44;55.32;99962.50;12243707;19;20264;-88
2023/03/26 05:54:32;;;;;;;;;;;11.70;53.90;;;10.45;55.45;99971.19;12245532;19;19983;-87
2023/03/26 05:59:03;;;;;;;;;;;11.70;53.80;;;10.39;55.25;99952.38;12241862;19;19922;-87
2023/03/26 06:03:38;;;;;;;;;;;11.70;53.80;;;10.48;55.38;99961.38;12244885;19;19938;-88
2023/03/26 06:07:49;;;;;;;;;;;11.80;53.80;;;10.46;55.34;99962.44;12249932;19;20271;-88
2023/03/26 06:11:53;;;;;;;;;;;11.80;53.80;;;10.45;55.51;99956.38;12259572;19;19994;-88
2023/03/26 06:15:57;;;;;;;;;;;11.80;54.00;;;10.56;55.49;99972.16;12258837;19;19919;-88
2023/03/26 06:20:21;;;;;;;;;;;11.80;54.00;;;10.46;55.47;99957.19;12255440;19;19922;-88
2023/03/26 06:24:26;;;;;;;;;;;11.90;53.90;;;10.59;55.32;99977.16;12257245;19;20324;-88
2023/03/26 06:29:02;;;;;;;;;;;12.00;53.90;;;10.59;55.49;99974.53;12247894;19;20526;-88
2023/03/26 06:33:20;;;;;;;;;;;11.90;53.90;;;10.54;55.48;99960.97;12257494;19;19911;-87
2023/03/26 06:37:25;;;;;;;;;;;11.90;53.90;;;10.60;55.35;99964.94;12254338;19;19922;-88
2023/03/26 06:41:35;;;;;;;;;;;12.10;53.90;;;10.44;55.46;99933.81;12251823;19;19930;-88
2023/03/26 06:45:56;;;;;;;;;;;12.00;53.80;;;10.72;55.27;99981.53;12252647;19;19923;-87
2023/03/26 06:50:10;;;;;;;;;;;12.00;53.90;;;10.65;55.44;99970.69;12255515;19;19933;-87
2023/03/26 06:54:30;;;;;;;;;;;12.00;53.90;;;10.73;55.55;99989.28;12256468;19;19911;-87
2023/03/26 06:58:52;;;;;;;;;;;12.10;53.90;;;10.74;55.46;99987.50;12247641;19;19937;-87
2023/03/26 07:03:12;;;;;;;;;;;12.10;54.10;;;10.79;55.70;99985.41;12256714;19;19919;-88
2023/03/26 07:07:33;;;;;;;;;;;12.10;54.10;;;10.75;55.53;99973.53;12254987;19;20595;-88
2023/03/26 07:11:54;;;;;;;;;;;12.10;54.10;;;10.82;55.49;99986.03;12255025;19;19923;-88
2023/03/26 07:16:14;;;;;;;;;;;12.20;54.10;;;10.77;55.74;99966.38;12253933;19;20404;-90
2023/03/26 07:20:54;;;;;;;;;;;12.20;54.10;;;10.94;55.65;99994.00;12246563;19;19919;-89
2023/03/26 07:24:57;;;;;;;;;;;12.20;54.70;;;10.98;55.70;99991.03;12252576;19;19915;-89
2023/03/26 07:29:53;;;;;;;;;;;12.30;54.30;;;10.94;55.81;99968.69;12246198;19;20331;-90
2023/03/26 07:34:35;;;;;;;;;;;12.40;54.00;;;11.12;55.67;99986.66;12257799;19;19922;-88
2023/03/26 07:39:30;;;;;;;;;;;12.40;53.90;;;11.15;55.70;99983.81;12249598;19;19922;-87
2023/03/26 07:44:03;;;;;;;;;;;12.50;53.90;;;11.19;55.73;99988.72;12253603;19;19942;-88
2023/03/26 07:48:39;;;;;;;;;;;12.50;53.80;;;11.25;55.61;99983.06;12253089;19;20265;-88
2023/03/26 07:52:48;;;;;;;;;;;12.60;53.70;;;11.26;55.86;99984.75;12253508;19;19914;-89
2023/03/26 07:57:20;;;;;;;;;;;12.60;53.60;;;11.22;55.66;99972.00;12251976;19;20010;-88
2023/03/26 08:02:12;;;;;;;;;;;12.70;53.60;;;11.37;55.82;99996.22;12248751;19;20306;-89
2023/03/26 08:06:29;;;;;;;;;;;12.70;53.50;;;11.39;55.65;99989.94;12250871;19;19925;-90
2023/03/26 08:11:03;;;;;;;;;;;12.70;53.40;;;11.41;55.80;99990.66;12252272;19;19918;-89
2023/03/26 08:15:36;;;;;;;;;;;12.80;53.60;;;11.43;55.66;99986.19;12243259;19;20395;-90
2023/03/26 08:19:50;;;;;;;;;;;12.80;53.50;;;11.50;55.90;99987.44;12247910;19;19919;-89
2023/03/26 08:24:12;;;;;;;;;;;12.80;53.40;;;11.53;55.78;99994.22;12244713;19;19921;-89
2023/03/26 08:28:27;;;;;;;;;;;12.90;53.40;;;11.23;55.64;99943.16;12247541;19;19934;-90
2023/03/26 08:32:29;;;;;;;;;;;12.90;53.40;;;11.55;55.72;99996.72;12248893;19;19923;-90
2023/03/26 08:36:31;;;;;;;;;;;12.90;53.20;;;11.47;55.68;99985.00;12250255;19;19914;-89
2023/03/26 08:40:54;;;;;;;;;;;12.90;53.00;;;11.54;55.64;99993.25;12249263;19;19922;-89
2023/03/26 08:45:24;;;;;;;;;;;12.90;53.00;;;11.51;55.69;99986.47;12249491;19;19944;-88
2023/03/26 08:50:03;;;;;;;;;;;12.80;52.90;;;11.49;55.47;99985.72;12249148;19;19925;-89
2023/03/26 08:54:31;;;;;;;;;;;12.90;52.90;;;11.47;55.69;99992.84;12247154;19;19915;-89
2023/03/26 08:58:59;;;;;;;;;;;12.80;52.90;;;11.37;55.52;99965.72;12246923;19;20343;-89
2023/03/26 09:03:06;;;;;;;;;;;12.80;52.90;;;11.51;55.59;99983.84;12248840;19;19922;-89
2023/03/26 09:07:20;;;;;;;;;;;12.80;52.90;;;11.54;55.65;99979.34;12248740;19;19947;-89
2023/03/26 09:12:10;;;;;;;;;;;12.80;52.90;;;11.58;55.55;99981.63;12250385;19;19922;-89
2023/03/26 09:16:46;;;;;;;;;;;12.90;53.00;;;11.58;55.63;99976.41;12244609;19;19922;-89
2023/03/26 09:21:35;;;;;;;;;;;12.90;53.20;;;11.61;55.65;99970.09;12239044;19;19923;-89
2023/03/26 09:26:13;;;;;;;;;;;12.90;53.10;;;11.67;55.68;99959.22;12226033;19;20593;-89
2023/03/26 09:30:35;;;;;;;;;;;13.00;53.30;;;11.71;55.59;99953.66;12242333;19;19923;-88
2023/03/26 09:34:51;;;;;;;;;;;13.00;53.30;;;11.75;55.60;99949.06;12247620;19;19911;-89
2023/03/26 09:39:26;;;;;;;;;;;13.10;53.40;;;11.78;55.65;99943.59;12244551;19;19923;-89
2023/03/26 09:43:53;;;;;;;;;;;13.10;53.20;;;11.82;55.42;99950.25;12247918;19;19923;-88
2023/03/26 09:48:15;;;;;;;;;;;13.10;53.20;;;11.80;55.68;99940.84;12244759;19;19903;-89
2023/03/26 09:52:50;;;;;;;;;;;13.10;53.00;;;11.86;55.61;99949.13;12246835;19;19925;-89
2023/03/26 09:56:57;;;;;;;;;;;13.20;53.00;;;11.88;55.58;99947.25;12245482;19;19922;-90
2023/03/26 10:01:09;;;;;;;;;;;13.20;53.00;;;11.94;55.54;99949.41;12245992;19;19922;-89
2023/03/26 10:05:33;;;;;;;;;;;13.20;53.00;;;12.00;55.51;99944.66;12248550;19;19952;-89
2023/03/26 10:10:01;;;;;;;;;;;13.30;53.00;;;11.97;55.81;99937.88;12244339;19;19918;-88
2023/03/26 10:14:14;;;;;;;;;;;13.30;53.00;;;12.12;55.65;99947.22;12245738;19;20365;-89
2023/03/26 10:18:38;;;;;;;;;;;13.40;53.00;;;12.17;55.50;99944.25;12244995;19;19921;-88
2023/03/26 10:22:59;;;;;;;;;;;13.50;52.80;;;12.12;55.67;99936.75;12245257;19;19919;-89
2023/03/26 10:27:12;;;;;;;;;;;13.50;53.20;;;12.22;55.61;99952.59;12243623;19;19918;-88
2023/03/26 10:31:35;;;;;;;;;;;13.60;52.60;;;12.24;55.44;99944.63;12244947;19;19983;-89
2023/03/26 10:35:59;;;;;;;;;;;13.60;52.60;;;12.28;55.66;99941.66;12245711;19;20269;-89
2023/03/26 10:40:22;;;;;;;;;;;13.60;52.50;;;12.25;55.50;99943.69;12245238;19;19982;-88
2023/03/26 10:44:49;;;;;;;;;;;13.60;52.60;;;12.38;55.49;99947.88;12245889;19;20269;-88
2023/03/26 10:49:17;;;;;;;;;;;13.70;52.60;;;12.43;55.50;99952.78;12244678;19;19946;-89
2023/03/26 10:53:46;;;;;;;;;;;13.80;52.70;;;12.45;55.30;99963.09;12250049;19;20317;-90
2023/03/26 10:57:55;;;;;;;;;;;13.80;52.60;;;12.35;55.47;99948.09;12253717;19;19914;-88
2023/03/26 11:02:28;;;;;;;;;;;13.80;52.60;;;12.39;55.32;99960.03;12246208;19;19926;-89
2023/03/26 11:06:37;;;;;;;;;;;13.80;52.60;;;12.38;55.23;99953.09;12254967;19;19942;-88
2023/03/26 11:10:52;;;;;;;;;;;13.70;52.60;;;12.40;55.37;99958.25;12254392;19;19942;-86
2023/03/26 11:15:18;;;;;;;;;;;13.70;52.60;;;12.40;55.39;99955.63;12257020;19;19946;-89
2023/03/26 11:19:26;;;;;;;;;;;13.70;52.60;;;12.36;55.39;99946.31;12247733;19;19915;-90
2023/03/26 11:23:39;;;;;;;;;;;13.70;52.70;;;12.31;55.36;99922.25;12249277;19;19934;-89
2023/03/26 11:28:03;;;;;;;;;;;13.70;52.70;;;12.40;55.50;99939.91;12250936;19;20325;-89
2023/03/26 11:32:19;;;;;;;;;;;13.70;52.70;;;12.40;55.31;99940.75;12253821;19;19929;-89
2023/03/26 11:36:25;;;;;;;;;;;13.70;52.70;;;12.40;55.42;99932.06;12248844;19;19925;-88
2023/03/26 11:40:34;;;;;;;;;;;13.70;52.80;;;12.46;55.41;99930.75;12250625;19;19915;-88
2023/03/26 11:44:45;;;;;;;;;;;13.70;52.80;;;12.42;55.27;99926.69;12253177;19;19941;-89
2023/03/26 11:48:56;;;;;;;;;;;13.80;52.80;;;12.49;55.46;99928.72;12247643;19;19926;-88
2023/03/26 11:53:01;;;;;;;;;;;13.80;52.80;;;12.51;55.16;99920.78;12250134;19;19922;-89
2023/03/26 11:57:13;;;;;;;;;;;13.80;52.80;;;12.53;55.38;99930.19;12251022;19;19919;-89
2023/03/26 12:01:17;;;;;;;;;;;13.80;52.80;;;12.56;55.33;99921.25;12246756;19;20341;-90
2023/03/26 12:05:23;;;;;;;;;;;13.80;52.80;;;12.31;55.25;99876.00;12245161;19;19926;-90
2023/03/26 12:09:25;;;;;;;;;;;13.90;52.70;;;12.45;55.42;99881.94;12249155;19;19933;-90
2023/03/26 12:13:37;;;;;;;;;;;13.90;52.80;;;12.71;55.36;99911.38;12250727;19;19986;-90
2023/03/26 12:17:40;;;;;;;;;;;14.00;52.90;;;12.74;55.37;99904.09;12251087;19;19915;-90
2023/03/26 12:21:50;;;;;;;;;;;14.00;52.90;;;12.74;55.36;99882.31;12248743;19;20659;-89
2023/03/26 12:26:17;;;;;;;;;;;14.10;52.90;;;12.85;55.38;99887.53;12252059;19;20260;-89
2023/03/26 12:30:20;;;;;;;;;;;14.20;52.90;;;12.97;55.43;99885.78;12251434;19;20397;-87
2023/03/26 12:34:33;;;;;;;;;;;14.20;53.10;;;13.01;55.55;99881.94;12251551;19;20492;-89
2023/03/26 12:38:36;;;;;;;;;;;14.30;52.90;;;12.91;55.49;99849.53;12248291;19;19935;-88
2023/03/26 12:42:40;;;;;;;;;;;14.40;52.80;;;13.14;55.50;99876.56;12250029;19;19978;-88
2023/03/26 12:46:46;;;;;;;;;;;14.40;52.70;;;13.12;55.33;99871.44;12250088;19;20257;-88
2023/03/26 12:51:23;;;;;;;;;;;14.60;52.70;;;13.24;55.37;99888.81;12249899;19;19919;-88
2023/03/26 12:55:42;;;;;;;;;;;14.50;52.50;;;13.28;55.41;99877.19;12248941;19;19914;-88
2023/03/26 13:00:12;;;;;;;;;;;14.60;52.50;;;13.33;55.39;99876.78;12246317;19;19918;-87
2023/03/26 13:04:27;;;;;;;;;;;14.60;52.30;;;13.39;55.36;99878.09;12249139;19;19910;-88
2023/03/26 13:08:51;;;;;;;;;;;14.70;51.50;;;13.45;55.24;99870.56;12246937;19;20319;-90
2023/03/26 13:13:08;;;;;;;;;;;14.80;52.00;;;13.52;55.32;99873.50;12242697;19;19986;-88
2023/03/26 13:17:28;;;;;;;;;;;14.80;51.80;;;13.54;55.28;99863.72;12243896;19;19918;-89
2023/03/26 13:21:40;;;;;;;;;;;14.90;51.90;;;13.35;55.25;99829.47;12242959;19;19932;-89
2023/03/26 13:26:01;;;;;;;;;;;14.90;51.80;;;13.60;55.28;99863.22;12249767;19;19919;-90
2023/03/26 13:30:15;;;;;;;;;;;15.00;51.90;;;13.64;55.39;99864.66;12247026;19;19931;-90
2023/03/26 13:34:53;;;;;;;;;;;15.00;51.80;;;13.63;55.30;99849.03;12248017;19;19986;-89
2023/03/26 13:39:13;;;;;;;;;;;15.00;51.70;;;13.74;55.31;99862.09;12235159;19;20490;-89
2023/03/26 13:44:00;;;;;;;;;;;15.10;51.80;;;13.77;55.22;99858.38;12245616;19;19983;-90
2023/03/26 13:48:04;;;;;;;;;;;15.10;51.60;;;13.74;55.22;99843.72;12236569;19;19935;-89
2023/03/26 13:52:16;;;;;;;;;;;15.10;51.60;;;13.83;55.18;99857.91;12243567;19;19963;-90
2023/03/26 13:56:22;;;;;;;;;;;15.20;51.80;;;13.78;55.17;99834.66;12246114;19;19956;-89
2023/03/26 14:00:37;;;;;;;;;;;15.20;51.60;;;13.86;55.04;99844.53;12244689;19;19970;-89
2023/03/26 14:04:43;;;;;;;;;;;15.20;51.50;;;13.75;55.02;99823.59;12247746;19;19919;-89
2023/03/26 14:08:50;;;;;;;;;;;15.20;51.80;;;13.90;55.07;99843.28;12243182;19;19929;-89
2023/03/26 14:12:58;;;;;;;;;;;15.20;51.50;;;13.98;55.13;99846.09;12238731;19;19919;-89
2023/03/26 14:17:12;;;;;;;;;;;15.30;51.60;;;14.02;54.97;99836.19;12241079;19;19922;-89
2023/03/26 14:21:55;;;;;;;;;;;15.40;51.40;;;14.07;55.07;99837.47;12237950;19;19942;-91
2023/03/26 14:26:26;;;;;;;;;;;15.40;51.30;;;13.66;54.97;99773.53;12240596;19;19914;-91
2023/03/26 14:30:55;;;;;;;;;;;15.40;51.10;;;14.12;54.88;99831.81;12254536;19;19919;-92
2023/03/26 14:35:10;;;;;;;;;;;15.50;51.20;;;14.14;54.88;99824.66;12254735;19;19919;-90
2023/03/26 14:39:26;;;;;;;;;;;15.50;51.40;;;14.15;54.90;99835.03;12250391;19;19918;-90
2023/03/26 14:43:53;;;;;;;;;;;15.50;51.20;;;14.13;54.89;99826.44;12253316;19;19923;-90
2023/03/26 14:48:06;;;;;;;;;;;15.50;51.30;;;14.14;54.90;99828.09;12248887;19;19934;-90
2023/03/26 14:52:38;;;;;;;;;;;15.50;51.20;;;14.11;54.76;99825.75;12254036;19;19923;-89
2023/03/26 14:56:52;;;;;;;;;;;15.50;51.20;;;14.15;54.71;99828.97;12252392;19;19923;-90
2023/03/26 15:01:27;;;;;;;;;;;15.50;51.20;;;14.16;54.68;99833.22;12251417;19;19922;-91
2023/03/26 15:05:40;;;;;;;;;;;15.40;51.10;;;14.15;54.62;99816.66;12256950;19;19926;-91
2023/03/26 15:09:42;;;;;;;;;;;15.40;51.10;;;14.16;54.67;99813.06;12251754;19;19922;-90
2023/03/26 15:14:21;;;;;;;;;;;15.40;51.20;;;14.16;54.66;99820.09;12255091;19;19926;-91
2023/03/26 15:18:22;;;;;;;;;;;15.50;51.30;;;14.15;54.57;99821.91;12240377;19;19918;-90
2023/03/26 15:23:05;;;;;;;;;;;15.50;51.20;;;14.18;54.74;99818.19;12250958;19;20361;-90
2023/03/26 15:27:41;;;;;;;;;;;15.40;51.20;;;14.11;54.59;99809.97;12250881;19;19986;-90
2023/03/26 15:31:51;;;;;;;;;;;15.50;51.20;;;14.15;54.44;99811.41;12255690;19;20340;-90
2023/03/26 15:36:07;;;;;;;;;;;15.50;51.20;;;14.16;54.60;99813.06;12250410;19;19919;-90
2023/03/26 15:40:43;;;;;;;;;;;15.50;51.30;;;14.17;54.38;99813.88;12248963;19;19910;-91
2023/03/26 15:44:56;;;;;;;;;;;15.40;51.20;;;14.03;54.49;99801.09;12252559;19;19919;-90
2023/03/26 15:49:32;;;;;;;;;;;15.40;51.30;;;14.00;54.40;99786.44;12247658;19;19925;-90
2023/03/26 15:53:46;;;;;;;;;;;15.40;50.90;;;14.17;54.49;99812.09;12251343;19;20340;-90
2023/03/26 15:57:55;;;;;;;;;;;15.40;51.00;;;14.17;54.49;99816.50;12251779;19;19915;-91
2023/03/26 16:02:10;;;;;;;;;;;15.40;50.80;;;14.13;54.37;99804.63;12243599;19;19914;-91
2023/03/26 16:06:26;;;;;;;;;;;15.40;51.00;;;14.16;54.37;99805.19;12259398;19;19941;-90
2023/03/26 16:10:59;;;;;;;;;;;15.40;50.90;;;14.17;54.33;99803.38;12253268;19;19914;-90
2023/03/26 16:15:06;;;;;;;;;;;15.40;50.80;;;14.15;54.24;99806.16;12249226;19;20272;-90
2023/03/26 16:19:19;;;;;;;;;;;15.40;50.80;;;14.14;54.34;99814.97;12248096;19;19922;-91
2023/03/26 16:23:43;;;;;;;;;;;15.40;50.90;;;14.14;54.32;99803.63;12252123;19;19927;-90
2023/03/26 16:27:45;;;;;;;;;;;15.40;51.00;;;13.97;54.29;99785.88;12251851;19;19919;-91
2023/03/26 16:32:17;;;;;;;;;;;15.30;50.90;;;14.12;54.12;99808.19;12250339;19;19978;-91
2023/03/26 16:36:36;;;;;;;;;;;15.30;51.00;;;14.13;54.18;99825.63;12251265;19;19939;-91
2023/03/26 16:40:53;;;;;;;;;;;15.40;51.10;;;14.06;54.10;99816.59;12251623;19;19915;-90
2023/03/26 16:45:12;;;;;;;;;;;15.40;50.90;;;14.05;54.18;99814.94;12248832;19;19923;-91
2023/03/26 16:49:35;;;;;;;;;;;15.30;50.90;;;13.98;54.06;99809.34;12246338;19;20307;-91
2023/03/26 16:53:44;;;;;;;;;;;15.30;50.90;;;14.02;54.01;99828.31;12250995;19;20254;-91
2023/03/26 16:57:55;;;;;;;;;;;15.20;50.90;;;13.93;54.12;99820.25;12249826;19;20308;-91
2023/03/26 17:02:05;;;;;;;;;;;15.20;50.90;;;13.92;54.10;99825.63;12245594;19;19928;-92
2023/03/26 17:06:29;;;;;;;;;;;15.20;50.90;;;13.83;54.09;99813.28;12247954;19;20274;-92
2023/03/26 17:11:18;;;;;;;;;;;15.20;51.00;;;13.83;54.12;99823.78;12249742;19;19918;-92
2023/03/26 17:15:24;;;;;;;;;;;15.20;51.10;;;13.93;54.02;99840.41;12247801;19;19911;-92
2023/03/26 17:19:34;;;;;;;;;;;15.10;51.00;;;13.87;54.04;99838.28;12243979;19;19915;-92
2023/03/26 17:24:00;;;;;;;;;;;15.10;51.00;;;13.84;53.98;99839.38;12249993;19;20110;-92
2023/03/26 17:28:26;;;;;;;;;;;15.10;51.00;;;13.79;53.96;99841.56;12245170;19;19944;-92
2023/03/26 17:33:02;;;;;;;;;;;15.00;50.90;;;13.75;54.03;99855.91;12247396;19;19927;-91
2023/03/26 17:37:26;;;;;;;;;;;15.00;50.90;;;13.71;53.99;99851.84;12247172;19;20292;-92
2023/03/26 17:42:05;;;;;;;;;;;14.90;51.00;;;13.69;53.95;99851.13;12246635;19;19935;-92
2023/03/26 17:46:32;;;;;;;;;;;14.90;51.00;;;13.65;53.97;99861.06;12245025;19;19923;-92
2023/03/26 17:50:55;;;;;;;;;;;14.80;51.00;;;13.52;53.86;99849.91;12247965;19;20279;-90
2023/03/26 17:54:57;;;;;;;;;;;14.80;51.00;;;13.51;54.16;99853.50;12242813;19;19918;-91
2023/03/26 17:59:02;;;;;;;;;;;14.80;51.00;;;13.30;53.74;99823.78;12242690;19;19919;-89
2023/03/26 18:03:33;;;;;;;;;;;14.70;50.80;;;13.51;53.86;99877.09;12250170;19;19933;-92
2023/03/26 18:08:00;;;;;;;;;;;14.70;50.90;;;13.45;53.91;99875.81;12256142;19;20658;-92
2023/03/26 18:12:20;;;;;;;;;;;14.60;50.90;;;13.43;53.81;99879.50;12260059;19;19985;-92
2023/03/26 18:16:45;;;;;;;;;;;14.60;50.90;;;13.40;53.84;99882.38;12258965;19;19919;-93
2023/03/26 18:20:48;;;;;;;;;;;14.60;51.00;;;13.28;53.94;99865.84;12254480;19;19918;-92
2023/03/26 18:24:50;;;;;;;;;;;14.60;51.10;;;13.13;53.81;99838.22;12256339;19;19914;-92
2023/03/26 18:29:07;;;;;;;;;;;14.50;51.10;;;13.03;53.77;99833.69;12253533;19;19915;-92
2023/03/26 18:33:14;;;;;;;;;;;14.50;51.00;;;13.24;53.85;99870.47;12258524;19;19918;-91
2023/03/26 18:37:33;;;;;;;;;;;14.50;51.00;;;13.28;53.78;99874.56;12254640;19;19914;-92
2023/03/26 18:41:40;;;;;;;;;;;14.50;51.10;;;13.05;53.78;99854.53;12256257;19;19915;-92
2023/03/26 18:45:43;;;;;;;;;;;14.40;51.10;;;13.20;53.62;99884.75;12257040;19;19942;-92
2023/03/26 18:49:47;;;;;;;;;;;14.40;51.10;;;13.06;53.76;99864.88;12253046;19;19922;-92
2023/03/26 18:53:55;;;;;;;;;;;14.40;51.10;;;13.08;53.70;99872.66;12254842;19;19915;-92
2023/03/26 18:58:09;;;;;;;;;;;14.40;51.10;;;13.20;53.82;99891.78;12249318;19;20260;-92
2023/03/26 19:02:13;;;;;;;;;;;14.40;51.10;;;13.14;53.97;99887.88;12250843;19;19915;-93
2023/03/26 19:06:15;;;;;;;;;;;14.40;51.10;;;13.16;53.86;99899.09;12253310;19;19926;-91
2023/03/26 19:10:20;;;;;;;;;;;14.30;51.00;;;13.11;53.88;99889.91;12255688;19;19964;-93
2023/03/26 19:14:23;;;;;;;;;;;14.30;51.00;;;13.07;53.61;99889.34;12255113;19;20287;-92
2023/03/26 19:18:26;;;;;;;;;;;14.30;51.00;;;12.81;53.55;99862.56;12252897;19;19926;-92
2023/03/26 19:22:29;;;;;;;;;;;14.20;50.90;;;13.00;53.70;99899.47;12250606;19;20344;-92